INFORMACIÓN METAR y TAF
METAR FOR GCTS
ADDS - METARS form results

(2107 UTC 02 March 2021)
Data provider http://aviationweather.gov/metar/data/
 
METAR text: GCTS 022100Z 07013KT 9999 FEW024 18/12 Q1022 NOSIG
Conditions at: GCTS (TENERIFE SUR/REI, ES) observed 2100 UTC 02 March 2021
Temperature: 18.0°C (64°F)
Dewpoint: 12.0°C (54°F) [RH = 68%]
Pressure (altimeter): 30.18 inches Hg (1022.0 mb)
Winds: from the ENE (70 degrees) at 15 MPH (13 knots; 6.7 m/s)
Visibility: 6 or more miles (10+ km)
Ceiling: at least 12,000 feet AGL
Clouds: few clouds at 2400 feet AGL
Weather: no significant weather observed at this time

METAR text: GCTS 022030Z 07011KT 9999 FEW025 18/13 Q1022 NOSIG
Conditions at: GCTS (TENERIFE SUR/REI, ES) observed 2030 UTC 02 March 2021
Temperature: 18.0°C (64°F)
Dewpoint: 13.0°C (55°F) [RH = 73%]
Pressure (altimeter): 30.18 inches Hg (1022.0 mb)
Winds: from the ENE (70 degrees) at 13 MPH (11 knots; 5.7 m/s)
Visibility: 6 or more miles (10+ km)
Ceiling: at least 12,000 feet AGL
Clouds: few clouds at 2500 feet AGL
Weather: no significant weather observed at this time

Forecast for: GCTS (TENERIFE SUR/REI, ES)
Text: TAF GCTS 022000Z 0221/0321 04009KT 9999 SCT035 TX22/0314Z TN14/0307Z
Forecast period: 2100 UTC 02 March 2021 to 0900 UTC 03 March 2021
Forecast type: FROM: standard forecast or significant change
Winds: from the NE (40 degrees) at 10 MPH (9 knots; 4.6 m/s)
Visibility: 6 or more miles (10+ km)
Ceiling: at least 12,000 feet AGL
Clouds: scattered clouds at 3500 feet AGL
Weather: no significant weather forecast for this period
Text: BECMG 0309/0311 10012KT
Forecast period: 0900 to 2100 UTC 03 March 2021
Forecast type: BECOMING: Conditions expected to become as follows by 1100 UTC 03 March 2021
Winds: from the E (100 degrees) at 14 MPH (12 knots; 6.2 m/s)
Visibility: 6 or more miles (10+ km)
Ceiling: at least 12,000 feet AGL
Clouds: scattered clouds at 3500 feet AGL
Weather: no significant weather forecast for this period

 MAPA DE AEROPUERTO

 INFORMACIÓN DE PISTA
Pista 08 Longitud 10499 ft Ancho 148 ft
Elevación 187 ft Umbral desplazado 0 ft Rumbo de pista 69
Pista 26 Longitud 10499 ft Ancho 148 ft
Elevación 209 ft Umbral desplazado 0 ft Rumbo de pista 249

 FRECUANCIAS DEL AEROPUERTO
Tipo APP Nombre APP Frecuencia 120.3 MHZ
Tipo ATIS Nombre ATIS Frecuencia 118.675 MHZ
Tipo GND Nombre GND Frecuencia 121.9 MHZ
Tipo TWR Nombre TWR Frecuencia 119 MHZ

 RADIO AYUDAS DEL AEROPUERTO
Tipo NDB Nombre Tenerife Sur Frecuencia 317 KHZ
Tipo VOR-DME Nombre Tenerife Sur Frecuencia 116400 KHZ




Normativa | Spanair Virtual © 2021 |